Flight Track Log - Related Links

Times and Time Zones

All times are in EDT time to prevent confusion due to time zone crossing. See the ASQ5272 flight status page for this flight to view local times or setup timezone preferences in your user account.


Time Position Orientation Groundspeed Altitude Reporting Facility
EDT Latitude Longitude Course Direction KTS MPH feet Rate Location/Type
Sun 02:02:06 PM 33.6494 -84.4806 252° West 421 484 2,300  Level Atlanta Center
Sun 02:03:06 PM 33.6658 -84.5656 283° West 279 321 3,900 2,050 Climbing Atlanta Center
Sun 02:04:06 PM 33.6800 -84.6503 281° West 274 315 6,400 2,400 Climbing Atlanta Center
Sun 02:05:06 PM 33.6961 -84.7403 282° West 302 348 8,700 1,850 Climbing Atlanta Center
Sun 02:06:06 PM 33.6914 -84.8478 267° West 307 353 10,100 1,200 Climbing Atlanta Center
Sun 02:07:00 PM 33.7881 -84.6600 252° West  Level FlightAware Approximate
Sun 02:07:06 PM 33.6781 -84.9650 262° West 331 381 11,100  Level Atlanta Center
Sun 02:08:06 PM 33.6667 -85.0847 264° West 354 407 12,100 1,000 Climbing Atlanta Center
Sun 02:09:06 PM 33.6508 -85.2117 262° West 370 426 13,100 1,000 Climbing Atlanta Center
Sun 02:10:06 PM 33.6517 -85.3389 270° West 389 448 14,100 1,000 Climbing Atlanta Center
Sun 02:11:06 PM 33.6544 -85.4714 271° West 389 448 15,100 1,000 Climbing Atlanta Center
Sun 02:12:06 PM 33.6717 -85.5989 279° West 389 448 16,100 1,050 Climbing Atlanta Center
Sun 02:13:06 PM 33.6950 -85.7242 283° West 389 448 17,200 950 Climbing Atlanta Center
Sun 02:14:06 PM 33.7164 -85.8319 283° West 384 442 18,000 900 Climbing Atlanta Center
Sun 02:15:06 PM 33.7375 -85.9547 282° West 379 436 19,000 900 Climbing Atlanta Center
Sun 02:16:06 PM 33.7564 -86.0778 280° West 379 436 19,800 800 Climbing Atlanta Center
Sun 02:17:06 PM 33.7794 -86.2031 283° West 374 430 20,600 850 Climbing Atlanta Center
Sun 02:18:06 PM 33.8022 -86.3261 283° West 374 430 21,500 850 Climbing Atlanta Center
Sun 02:19:06 PM 33.8250 -86.4519 282° West 379 436 22,300 800 Climbing Atlanta Center
Sun 02:20:06 PM 33.8453 -86.5775 281° West 384 442 23,100 800 Climbing Atlanta Center
Sun 02:21:06 PM 33.8656 -86.7031 281° West 384 442 23,900 800 Climbing Atlanta Center
Sun 02:22:06 PM 33.8881 -86.8264 282° West 384 442 24,700 800 Climbing Atlanta Center
Sun 02:23:06 PM 33.9097 -86.9622 281° West 379 436 25,500 700 Climbing Atlanta Center
Sun 02:24:06 PM 33.9297 -87.0856 281° West 379 436 26,100 600 Climbing Atlanta Center
Sun 02:25:06 PM 33.9517 -87.2117 282° West 379 436 26,700 596 Climbing Atlanta Center
Sun 02:26:27 PM 33.9822 -87.3711 283° West 374 430 27,500 553 Climbing Memphis Center
Sun 02:27:27 PM 34.0019 -87.4958 281° West 379 436 28,000 250 Climbing Memphis Center
Sun 02:28:27 PM 34.0217 -87.6281 280° West 394 453 28,000  Level Memphis Center
Sun 02:29:27 PM 34.0453 -87.7600 282° West 401 461 28,000  Level Memphis Center
Sun 02:30:27 PM 34.0669 -87.9000 281° West 420 483 28,000  Level Memphis Center
Sun 02:31:27 PM 34.0883 -88.0422 280° West 426 490 28,000  Level Memphis Center
Sun 02:32:27 PM 34.1094 -88.1672 282° West 431 496 28,000  Level Memphis Center
Sun 02:33:27 PM 34.1331 -88.3322 280° West 438 504 28,000  Level Memphis Center
Sun 02:34:27 PM 34.1542 -88.4747 280° West 438 504 28,000  Level Memphis Center
Sun 02:35:27 PM 34.1772 -88.6172 281° West 443 510 28,000  Level Memphis Center
Sun 02:36:27 PM 34.2019 -88.7625 282° West 443 510 28,000  Level Memphis Center
Sun 02:37:27 PM 34.2247 -88.9128 280° West 436 502 28,000  Level Memphis Center
Sun 02:38:27 PM 34.2450 -89.0556 280° West 430 495 28,000  Level Memphis Center
Sun 02:39:27 PM 34.2653 -89.1961 280° West 430 495 28,000  Level Memphis Center
Sun 02:40:27 PM 34.2831 -89.3214 280° West 430 495 28,000  Level Memphis Center
Sun 02:41:27 PM 34.3050 -89.4619 281° West 425 489 28,000  Level Memphis Center
Sun 02:42:27 PM 34.3247 -89.6000 280° West 425 489 28,000  Level Memphis Center
Sun 02:43:27 PM 34.3464 -89.7433 280° West 425 489 28,000  Level Memphis Center
Sun 02:44:27 PM 34.3639 -89.8817 279° West 425 489 28,000  Level Memphis Center
Sun 02:45:27 PM 34.3872 -90.0350 280° West 425 489 28,000  Level Memphis Center
Sun 02:46:27 PM 34.4064 -90.1708 280° West 425 489 28,000  Level Memphis Center
Sun 02:47:27 PM 34.4272 -90.3094 280° West 425 489 28,000  Level Memphis Center
Sun 02:48:27 PM 34.4461 -90.4453 280° West 420 483 28,000  Level Memphis Center
Sun 02:49:27 PM 34.4667 -90.5789 281° West 413 475 28,000  Level Memphis Center
Sun 02:50:27 PM 34.4853 -90.7150 279° West 413 475 28,000  Level Memphis Center
Sun 02:51:27 PM 34.4994 -90.8358 278° West 413 475 28,000  Level Memphis Center
Sun 02:52:27 PM 34.5197 -90.9722 280° West 407 468 28,000  Level Memphis Center
Sun 02:53:27 PM 34.5400 -91.1061 280° West 407 468 28,000  Level Memphis Center
Sun 02:54:27 PM 34.5536 -91.2397 277° West 407 468 28,000  Level Memphis Center
Sun 02:55:27 PM 34.5733 -91.3786 280° West 412 474 28,000  Level Memphis Center
Sun 02:56:27 PM 34.5931 -91.5153 280° West 406 467 28,000  Level Memphis Center
Sun 02:57:27 PM 34.6125 -91.6617 279° West 411 473 28,000  Level Memphis Center
Sun 02:58:27 PM 34.6278 -91.7806 279° West 405 466 28,000  Level Memphis Center
Sun 02:59:27 PM 34.6306 -91.9144 271° West 405 466 28,000  Level Memphis Center
Sun 03:00:27 PM 34.6036 -92.0503 256° West 405 466 28,000  Level Memphis Center
Sun 03:01:27 PM 34.5789 -92.1833 257° West 405 466 28,000  Level Memphis Center
Sun 03:02:27 PM 34.5517 -92.3292 257° West 411 473 28,000  Level Memphis Center
Sun 03:03:27 PM 34.5264 -92.4619 257° West 411 473 28,000  Level Memphis Center
Sun 03:04:27 PM 34.4992 -92.5975 256° West 411 473 28,000  Level Memphis Center
Sun 03:05:27 PM 34.4758 -92.7306 258° West 411 473 28,000  Level Memphis Center
Sun 03:06:27 PM 34.4481 -92.8656 256° West 411 473 28,000  Level Memphis Center
Sun 03:07:27 PM 34.4203 -92.9983 256° West 406 467 28,000  Level Memphis Center
Sun 03:08:27 PM 34.3964 -93.1358 258° West 412 474 28,000  Level Memphis Center
Sun 03:09:27 PM 34.3683 -93.2683 256° West 413 475 28,000  Level Memphis Center
Sun 03:10:27 PM 34.3422 -93.4033 257° West 413 475 28,000  Level Memphis Center
Sun 03:11:27 PM 34.3139 -93.5381 256° West 413 475 28,000  Level Memphis Center
Sun 03:12:45 PM 34.2750 -93.6989 254° West 412 474 28,000  Level Fort Worth Center
Sun 03:13:45 PM 34.2306 -93.8264 247° West 417 480 28,000  Level Fort Worth Center
Sun 03:14:45 PM 34.1842 -93.9539 246° West 417 480 28,000  Level Fort Worth Center
Sun 03:15:45 PM 34.1356 -94.0839 246° West 422 486 28,000  Level Fort Worth Center
Sun 03:16:45 PM 34.0867 -94.2111 245° Southwest 422 486 28,000  Level Fort Worth Center
Sun 03:17:45 PM 34.0397 -94.3381 246° West 422 486 28,000  Level Fort Worth Center
Sun 03:18:45 PM 33.9886 -94.4678 245° Southwest 428 493 28,000  Level Fort Worth Center
Sun 03:19:45 PM 33.9394 -94.5994 246° West 428 493 28,000  Level Fort Worth Center
Sun 03:20:45 PM 33.8900 -94.7261 245° Southwest 428 493 28,000  Level Fort Worth Center
Sun 03:21:45 PM 33.8425 -94.8528 246° West 428 493 28,000  Level Fort Worth Center
Sun 03:22:45 PM 33.7931 -94.9842 246° West 428 493 28,000  Level Fort Worth Center
Sun 03:23:45 PM 33.7411 -95.1106 244° Southwest 428 493 28,000  Level Fort Worth Center
Sun 03:24:45 PM 33.6933 -95.2389 246° West 428 493 28,000 -650 Level Fort Worth Center
Sun 03:25:45 PM 33.6414 -95.3700 245° Southwest 428 493 26,700 -2,050 Descending Fort Worth Center
Sun 03:26:45 PM 33.5869 -95.5058 244° Southwest 439 505 23,900 -3,100 Descending Fort Worth Center
Sun 03:27:45 PM 33.5308 -95.6617 247° West 459 528 20,500 -2,950 Descending Fort Worth Center
Sun 03:28:45 PM 33.4864 -95.7722 244° Southwest 438 504 18,000 -2,650 Descending Fort Worth Center
Sun 03:29:45 PM 33.4339 -95.9100 245° Southwest 421 484 15,200 -2,600 Descending Fort Worth Center
Sun 03:30:45 PM 33.3914 -96.0153 244° Southwest 401 461 12,800 -2,200 Descending Fort Worth Center
Sun 03:31:45 PM 33.3447 -96.1378 246° West 383 441 10,800 -1,550 Descending Fort Worth Center
Sun 03:32:45 PM 33.3100 -96.2178 243° Southwest 327 376 9,700 -900 Descending Fort Worth Center
Sun 03:33:45 PM 33.2733 -96.3128 245° Southwest 294 338 9,000 -359 Descending Fort Worth Center
Sun 03:34:42 PM 33.2333 -96.3833 236° Southwest 284 327 9,000 -486 Level Dallas / Fort Worth TRACON
Sun 03:35:36 PM 33.1833 -96.4500 228° Southwest 284 327 8,100 -750 Descending Dallas / Fort Worth TRACON
Sun 03:36:42 PM 33.1500 -96.5333 244° Southwest 277 319 7,500 -744 Descending Dallas / Fort Worth TRACON
Sun 03:37:45 PM 33.1106 -96.6025 236° Southwest 254 292 6,500 -1,100 Descending Fort Worth Center
Sun 03:38:42 PM 33.0667 -96.6667 231° Southwest 227 261 5,300 -811 Descending Dallas / Fort Worth TRACON
Sun 03:39:36 PM 33.0333 -96.7167 232° Southwest 232 267 5,000 -650 Descending Dallas / Fort Worth TRACON
Sun 03:40:42 PM 32.9833 -96.7833 228° Southwest 230 265 4,000 -450 Descending Dallas / Fort Worth TRACON
Sun 03:41:36 PM 33.0000 -96.8500 287° West 206 237 4,100 -316 Climbing Dallas / Fort Worth TRACON
Sun 03:42:36 PM 32.9667 -96.8833 220° Southwest 167 192 3,400 -762 Descending Dallas / Fort Worth TRACON
Sun 03:43:42 PM 32.9167 -96.9000 196° South 148 170 2,500 -1,000 Descending Dallas / Fort Worth TRACON
Sun 03:44:42 PM 32.8833 -96.8833 157° South 140 161 1,300 -1,200 Descending Dallas / Fort Worth TRACON
Sun 03:47:00 PM 32.8471 -96.8518 166° South  Level Estimated

Login

Don't have an account? Register now (free) for customized features, flight alerts, and more!